sensor_id;sensor_type;location;lat;lon;timestamp;temperature;humidity
15103;DHT22;7652;53.584;9.998;2024-02-16T00:01:22;12.40;99.90
15103;DHT22;7652;53.584;9.998;2024-02-16T00:04:43;12.30;99.90
15103;DHT22;7652;53.584;9.998;2024-02-16T00:08:05;12.30;99.90
15103;DHT22;7652;53.584;9.998;2024-02-16T00:11:26;12.30;99.90
15103;DHT22;7652;53.584;9.998;2024-02-16T00:14:50;12.30;99.90
15103;DHT22;7652;53.584;9.998;2024-02-16T00:18:11;12.40;99.90
15103;DHT22;7652;53.584;9.998;2024-02-16T00:21:33;12.30;99.90
15103;DHT22;7652;53.584;9.998;2024-02-16T00:24:55;12.30;99.90
15103;DHT22;7652;53.584;9.998;2024-02-16T00:28:16;12.20;99.90
15103;DHT22;7652;53.584;9.998;2024-02-16T00:31:40;12.20;99.90
15103;DHT22;7652;53.584;9.998;2024-02-16T00:35:01;12.20;99.90
15103;DHT22;7652;53.584;9.998;2024-02-16T00:38:23;12.20;99.90
15103;DHT22;7652;53.584;9.998;2024-02-16T00:41:45;12.20;99.90
15103;DHT22;7652;53.584;9.998;2024-02-16T00:45:08;12.20;99.90
15103;DHT22;7652;53.584;9.998;2024-02-16T00:48:31;12.20;99.90
15103;DHT22;7652;53.584;9.998;2024-02-16T00:51:52;12.30;99.90
15103;DHT22;7652;53.584;9.998;2024-02-16T00:55:18;12.30;99.90
15103;DHT22;7652;53.584;9.998;2024-02-16T00:58:40;12.20;99.90
15103;DHT22;7652;53.584;9.998;2024-02-16T01:02:03;12.10;99.90
15103;DHT22;7652;53.584;9.998;2024-02-16T01:05:26;12.10;99.90
15103;DHT22;7652;53.584;9.998;2024-02-16T01:08:48;12.00;99.90
15103;DHT22;7652;53.584;9.998;2024-02-16T01:12:09;11.90;99.90
15103;DHT22;7652;53.584;9.998;2024-02-16T01:15:30;11.90;99.90
15103;DHT22;7652;53.584;9.998;2024-02-16T01:18:52;11.90;99.90
15103;DHT22;7652;53.584;9.998;2024-02-16T01:22:15;11.90;99.90
15103;DHT22;7652;53.584;9.998;2024-02-16T01:25:38;11.80;99.90
15103;DHT22;7652;53.584;9.998;2024-02-16T01:29:00;11.70;99.90
15103;DHT22;7652;53.584;9.998;2024-02-16T01:32:22;11.70;99.90
15103;DHT22;7652;53.584;9.998;2024-02-16T01:35:44;11.60;99.90
15103;DHT22;7652;53.584;9.998;2024-02-16T01:39:07;11.60;99.90
15103;DHT22;7652;53.584;9.998;2024-02-16T01:42:29;11.50;99.90
15103;DHT22;7652;53.584;9.998;2024-02-16T01:45:51;11.50;99.90
15103;DHT22;7652;53.584;9.998;2024-02-16T01:49:13;11.40;99.90
15103;DHT22;7652;53.584;9.998;2024-02-16T01:52:35;11.40;99.90
15103;DHT22;7652;53.584;9.998;2024-02-16T01:55:58;11.40;99.90
15103;DHT22;7652;53.584;9.998;2024-02-16T01:59:20;11.50;99.90
15103;DHT22;7652;53.584;9.998;2024-02-16T02:02:44;11.50;99.90
15103;DHT22;7652;53.584;9.998;2024-02-16T02:06:06;11.50;99.90
15103;DHT22;7652;53.584;9.998;2024-02-16T02:09:28;11.50;99.90
15103;DHT22;7652;53.584;9.998;2024-02-16T02:12:51;11.50;99.90
15103;DHT22;7652;53.584;9.998;2024-02-16T02:16:13;11.50;99.90
15103;DHT22;7652;53.584;9.998;2024-02-16T02:19:35;11.60;99.90
15103;DHT22;7652;53.584;9.998;2024-02-16T02:22:58;11.60;99.90
15103;DHT22;7652;53.584;9.998;2024-02-16T02:26:20;11.70;99.90
15103;DHT22;7652;53.584;9.998;2024-02-16T02:29:42;11.60;99.90
15103;DHT22;7652;53.584;9.998;2024-02-16T02:33:04;11.60;99.90
15103;DHT22;7652;53.584;9.998;2024-02-16T02:36:26;11.60;99.90
15103;DHT22;7652;53.584;9.998;2024-02-16T02:39:49;11.60;99.90
15103;DHT22;7652;53.584;9.998;2024-02-16T02:43:11;11.50;99.90
15103;DHT22;7652;53.584;9.998;2024-02-16T02:46:32;11.50;99.90
15103;DHT22;7652;53.584;9.998;2024-02-16T02:49:54;11.40;99.90
15103;DHT22;7652;53.584;9.998;2024-02-16T02:53:15;11.40;99.90
15103;DHT22;7652;53.584;9.998;2024-02-16T02:56:40;11.30;99.90
15103;DHT22;7652;53.584;9.998;2024-02-16T03:00:06;11.30;99.90
15103;DHT22;7652;53.584;9.998;2024-02-16T03:03:31;11.30;99.90
15103;DHT22;7652;53.584;9.998;2024-02-16T03:06:54;11.30;99.90
15103;DHT22;7652;53.584;9.998;2024-02-16T03:10:16;11.30;99.90
15103;DHT22;7652;53.584;9.998;2024-02-16T03:13:43;11.30;99.90
15103;DHT22;7652;53.584;9.998;2024-02-16T03:17:04;11.30;99.90
15103;DHT22;7652;53.584;9.998;2024-02-16T03:20:26;11.30;99.90
15103;DHT22;7652;53.584;9.998;2024-02-16T03:23:47;11.40;99.90
15103;DHT22;7652;53.584;9.998;2024-02-16T03:27:09;11.40;99.90
15103;DHT22;7652;53.584;9.998;2024-02-16T03:30:32;11.50;99.90
15103;DHT22;7652;53.584;9.998;2024-02-16T03:33:55;11.60;99.90
15103;DHT22;7652;53.584;9.998;2024-02-16T03:37:17;11.60;99.90
15103;DHT22;7652;53.584;9.998;2024-02-16T03:40:38;11.60;99.90
15103;DHT22;7652;53.584;9.998;2024-02-16T03:44:00;11.70;99.90
15103;DHT22;7652;53.584;9.998;2024-02-16T03:47:23;11.70;99.90
15103;DHT22;7652;53.584;9.998;2024-02-16T03:50:44;11.70;99.90
15103;DHT22;7652;53.584;9.998;2024-02-16T03:54:06;11.80;99.90
15103;DHT22;7652;53.584;9.998;2024-02-16T03:57:30;11.70;99.90
15103;DHT22;7652;53.584;9.998;2024-02-16T04:00:52;11.50;99.90
15103;DHT22;7652;53.584;9.998;2024-02-16T04:04:16;11.60;99.90
15103;DHT22;7652;53.584;9.998;2024-02-16T04:07:37;11.60;99.90
15103;DHT22;7652;53.584;9.998;2024-02-16T04:10:58;11.60;99.90
15103;DHT22;7652;53.584;9.998;2024-02-16T04:14:20;11.60;99.90
15103;DHT22;7652;53.584;9.998;2024-02-16T04:17:42;11.60;99.90
15103;DHT22;7652;53.584;9.998;2024-02-16T04:21:05;11.60;99.90
15103;DHT22;7652;53.584;9.998;2024-02-16T04:24:27;11.70;99.90
15103;DHT22;7652;53.584;9.998;2024-02-16T04:27:49;11.70;99.90
15103;DHT22;7652;53.584;9.998;2024-02-16T04:31:11;11.70;99.90
15103;DHT22;7652;53.584;9.998;2024-02-16T04:34:32;11.80;99.90
15103;DHT22;7652;53.584;9.998;2024-02-16T04:37:56;11.70;99.90
15103;DHT22;7652;53.584;9.998;2024-02-16T04:41:19;11.80;99.90
15103;DHT22;7652;53.584;9.998;2024-02-16T04:44:41;11.90;99.90
15103;DHT22;7652;53.584;9.998;2024-02-16T04:48:04;11.80;99.90
15103;DHT22;7652;53.584;9.998;2024-02-16T04:51:26;11.70;99.90
15103;DHT22;7652;53.584;9.998;2024-02-16T04:54:49;11.70;99.90
15103;DHT22;7652;53.584;9.998;2024-02-16T04:58:11;11.70;99.90
15103;DHT22;7652;53.584;9.998;2024-02-16T05:01:32;11.70;99.90
15103;DHT22;7652;53.584;9.998;2024-02-16T05:04:54;11.60;99.90
15103;DHT22;7652;53.584;9.998;2024-02-16T05:08:17;11.60;99.90
15103;DHT22;7652;53.584;9.998;2024-02-16T05:11:40;11.60;99.90
15103;DHT22;7652;53.584;9.998;2024-02-16T05:15:02;11.50;99.90
15103;DHT22;7652;53.584;9.998;2024-02-16T05:18:24;11.60;99.90
15103;DHT22;7652;53.584;9.998;2024-02-16T05:21:46;11.50;99.90
15103;DHT22;7652;53.584;9.998;2024-02-16T05:25:08;11.50;99.90
15103;DHT22;7652;53.584;9.998;2024-02-16T05:28:32;11.60;99.90
15103;DHT22;7652;53.584;9.998;2024-02-16T05:31:54;11.60;99.90
15103;DHT22;7652;53.584;9.998;2024-02-16T05:35:15;11.60;99.90
15103;DHT22;7652;53.584;9.998;2024-02-16T05:38:38;11.50;99.90
15103;DHT22;7652;53.584;9.998;2024-02-16T05:42:03;11.50;99.90
15103;DHT22;7652;53.584;9.998;2024-02-16T05:45:26;11.60;99.90
15103;DHT22;7652;53.584;9.998;2024-02-16T05:48:48;11.60;99.90
15103;DHT22;7652;53.584;9.998;2024-02-16T05:52:10;11.60;99.90
15103;DHT22;7652;53.584;9.998;2024-02-16T05:55:41;11.50;99.90
15103;DHT22;7652;53.584;9.998;2024-02-16T05:59:04;11.50;99.90
15103;DHT22;7652;53.584;9.998;2024-02-16T06:02:27;11.50;99.90
15103;DHT22;7652;53.584;9.998;2024-02-16T06:05:49;11.40;99.90
15103;DHT22;7652;53.584;9.998;2024-02-16T06:09:11;11.40;99.90
15103;DHT22;7652;53.584;9.998;2024-02-16T06:12:33;11.40;99.90
15103;DHT22;7652;53.584;9.998;2024-02-16T06:15:55;11.30;99.90
15103;DHT22;7652;53.584;9.998;2024-02-16T06:19:18;11.40;99.90
15103;DHT22;7652;53.584;9.998;2024-02-16T06:22:40;11.30;99.90
15103;DHT22;7652;53.584;9.998;2024-02-16T06:26:02;11.30;99.90
15103;DHT22;7652;53.584;9.998;2024-02-16T06:29:23;11.30;99.90
15103;DHT22;7652;53.584;9.998;2024-02-16T06:32:45;11.20;99.90
15103;DHT22;7652;53.584;9.998;2024-02-16T06:36:09;11.20;99.90
15103;DHT22;7652;53.584;9.998;2024-02-16T06:39:31;11.30;99.90
15103;DHT22;7652;53.584;9.998;2024-02-16T06:42:53;11.40;99.90
15103;DHT22;7652;53.584;9.998;2024-02-16T06:46:15;11.30;99.90
15103;DHT22;7652;53.584;9.998;2024-02-16T06:49:36;11.30;99.90
15103;DHT22;7652;53.584;9.998;2024-02-16T06:52:59;11.20;99.90
15103;DHT22;7652;53.584;9.998;2024-02-16T06:56:21;11.20;99.90
15103;DHT22;7652;53.584;9.998;2024-02-16T06:59:43;11.20;99.90
15103;DHT22;7652;53.584;9.998;2024-02-16T07:03:04;11.20;99.90
15103;DHT22;7652;53.584;9.998;2024-02-16T07:06:26;11.20;99.90
15103;DHT22;7652;53.584;9.998;2024-02-16T07:09:50;11.10;99.90
15103;DHT22;7652;53.584;9.998;2024-02-16T07:13:11;11.10;99.90
15103;DHT22;7652;53.584;9.998;2024-02-16T07:16:33;11.30;99.90
15103;DHT22;7652;53.584;9.998;2024-02-16T07:19:54;11.40;99.90
15103;DHT22;7652;53.584;9.998;2024-02-16T07:23:16;11.20;99.90
15103;DHT22;7652;53.584;9.998;2024-02-16T07:26:39;11.20;99.90
15103;DHT22;7652;53.584;9.998;2024-02-16T07:30:00;11.20;99.90
15103;DHT22;7652;53.584;9.998;2024-02-16T07:33:22;11.20;99.90
15103;DHT22;7652;53.584;9.998;2024-02-16T07:36:45;11.20;99.90
15103;DHT22;7652;53.584;9.998;2024-02-16T07:40:07;11.30;99.90
15103;DHT22;7652;53.584;9.998;2024-02-16T07:43:31;11.40;99.90
15103;DHT22;7652;53.584;9.998;2024-02-16T07:46:53;11.50;99.90
15103;DHT22;7652;53.584;9.998;2024-02-16T07:50:18;11.60;99.90
15103;DHT22;7652;53.584;9.998;2024-02-16T07:53:40;11.70;99.90
15103;DHT22;7652;53.584;9.998;2024-02-16T07:57:05;11.80;99.90
15103;DHT22;7652;53.584;9.998;2024-02-16T08:00:28;11.90;99.90
15103;DHT22;7652;53.584;9.998;2024-02-16T08:03:49;12.00;99.90
15103;DHT22;7652;53.584;9.998;2024-02-16T08:07:11;12.00;99.90
15103;DHT22;7652;53.584;9.998;2024-02-16T08:10:34;12.10;99.90
15103;DHT22;7652;53.584;9.998;2024-02-16T08:13:56;12.10;99.90
15103;DHT22;7652;53.584;9.998;2024-02-16T08:17:22;12.30;99.90
15103;DHT22;7652;53.584;9.998;2024-02-16T08:20:43;12.50;99.90
15103;DHT22;7652;53.584;9.998;2024-02-16T08:24:05;12.50;99.90
15103;DHT22;7652;53.584;9.998;2024-02-16T08:27:27;12.60;99.90
15103;DHT22;7652;53.584;9.998;2024-02-16T08:30:48;12.50;99.90
15103;DHT22;7652;53.584;9.998;2024-02-16T08:34:11;12.50;99.90
15103;DHT22;7652;53.584;9.998;2024-02-16T08:37:33;12.40;99.90
15103;DHT22;7652;53.584;9.998;2024-02-16T08:40:55;12.40;99.90
15103;DHT22;7652;53.584;9.998;2024-02-16T08:44:16;12.30;99.90
15103;DHT22;7652;53.584;9.998;2024-02-16T08:47:39;12.40;99.90
15103;DHT22;7652;53.584;9.998;2024-02-16T08:51:02;12.30;99.90
15103;DHT22;7652;53.584;9.998;2024-02-16T08:54:24;12.30;99.90
15103;DHT22;7652;53.584;9.998;2024-02-16T08:57:46;12.30;99.90
15103;DHT22;7652;53.584;9.998;2024-02-16T09:01:08;12.30;99.90
15103;DHT22;7652;53.584;9.998;2024-02-16T09:04:30;12.30;99.90
15103;DHT22;7652;53.584;9.998;2024-02-16T09:07:53;12.40;99.90
15103;DHT22;7652;53.584;9.998;2024-02-16T09:11:15;12.40;99.90
15103;DHT22;7652;53.584;9.998;2024-02-16T09:14:37;12.50;99.90
15103;DHT22;7652;53.584;9.998;2024-02-16T09:17:59;12.50;99.90
15103;DHT22;7652;53.584;9.998;2024-02-16T09:21:20;12.50;99.90
15103;DHT22;7652;53.584;9.998;2024-02-16T09:24:45;12.50;99.90
15103;DHT22;7652;53.584;9.998;2024-02-16T09:28:08;12.50;99.90
15103;DHT22;7652;53.584;9.998;2024-02-16T09:31:40;12.40;99.90
15103;DHT22;7652;53.584;9.998;2024-02-16T09:35:02;12.50;99.90
15103;DHT22;7652;53.584;9.998;2024-02-16T09:38:24;12.50;99.90
15103;DHT22;7652;53.584;9.998;2024-02-16T09:41:50;12.50;99.90
15103;DHT22;7652;53.584;9.998;2024-02-16T09:45:15;12.60;99.90
15103;DHT22;7652;53.584;9.998;2024-02-16T09:48:39;12.80;99.90
15103;DHT22;7652;53.584;9.998;2024-02-16T09:52:02;13.00;99.90
15103;DHT22;7652;53.584;9.998;2024-02-16T09:55:24;13.00;99.90
15103;DHT22;7652;53.584;9.998;2024-02-16T09:58:48;13.10;99.90
15103;DHT22;7652;53.584;9.998;2024-02-16T10:02:12;13.20;99.90
15103;DHT22;7652;53.584;9.998;2024-02-16T10:05:34;13.30;99.90
15103;DHT22;7652;53.584;9.998;2024-02-16T10:08:56;13.30;99.90
15103;DHT22;7652;53.584;9.998;2024-02-16T10:12:18;13.40;99.90
15103;DHT22;7652;53.584;9.998;2024-02-16T10:15:42;13.50;99.90
15103;DHT22;7652;53.584;9.998;2024-02-16T10:19:05;13.60;99.90
15103;DHT22;7652;53.584;9.998;2024-02-16T10:22:27;13.70;99.90
15103;DHT22;7652;53.584;9.998;2024-02-16T10:25:48;13.80;99.90
15103;DHT22;7652;53.584;9.998;2024-02-16T10:29:10;14.20;99.90
15103;DHT22;7652;53.584;9.998;2024-02-16T10:32:36;14.40;99.90
15103;DHT22;7652;53.584;9.998;2024-02-16T10:35:58;14.60;99.90
15103;DHT22;7652;53.584;9.998;2024-02-16T10:39:23;14.80;99.90
15103;DHT22;7652;53.584;9.998;2024-02-16T10:42:45;14.90;99.90
15103;DHT22;7652;53.584;9.998;2024-02-16T10:46:07;14.90;99.90
15103;DHT22;7652;53.584;9.998;2024-02-16T10:49:33;14.80;99.90
15103;DHT22;7652;53.584;9.998;2024-02-16T10:52:57;14.80;99.90
15103;DHT22;7652;53.584;9.998;2024-02-16T10:56:27;14.70;99.90
15103;DHT22;7652;53.584;9.998;2024-02-16T10:59:53;14.80;99.90
15103;DHT22;7652;53.584;9.998;2024-02-16T11:03:17;14.80;99.90
15103;DHT22;7652;53.584;9.998;2024-02-16T11:06:47;15.00;99.90
15103;DHT22;7652;53.584;9.998;2024-02-16T11:10:12;15.20;99.90
15103;DHT22;7652;53.584;9.998;2024-02-16T11:13:35;15.50;99.90
15103;DHT22;7652;53.584;9.998;2024-02-16T11:16:57;15.70;99.90
15103;DHT22;7652;53.584;9.998;2024-02-16T11:20:19;15.80;99.90
15103;DHT22;7652;53.584;9.998;2024-02-16T11:23:42;15.90;99.90
15103;DHT22;7652;53.584;9.998;2024-02-16T11:27:07;16.00;99.90
15103;DHT22;7652;53.584;9.998;2024-02-16T11:30:31;16.10;99.90
15103;DHT22;7652;53.584;9.998;2024-02-16T11:33:53;16.20;99.90
15103;DHT22;7652;53.584;9.998;2024-02-16T11:37:16;16.10;99.90
15103;DHT22;7652;53.584;9.998;2024-02-16T11:40:39;16.00;99.90
15103;DHT22;7652;53.584;9.998;2024-02-16T11:44:01;16.00;99.90
15103;DHT22;7652;53.584;9.998;2024-02-16T11:47:24;16.00;99.90
15103;DHT22;7652;53.584;9.998;2024-02-16T11:51:00;16.00;99.90
15103;DHT22;7652;53.584;9.998;2024-02-16T11:54:22;15.90;99.90
15103;DHT22;7652;53.584;9.998;2024-02-16T11:57:46;15.90;99.90
15103;DHT22;7652;53.584;9.998;2024-02-16T12:01:11;16.00;99.90
15103;DHT22;7652;53.584;9.998;2024-02-16T12:04:33;16.20;99.90
15103;DHT22;7652;53.584;9.998;2024-02-16T12:08:06;16.40;99.90
15103;DHT22;7652;53.584;9.998;2024-02-16T12:11:28;16.50;99.90
15103;DHT22;7652;53.584;9.998;2024-02-16T12:14:52;16.50;99.90
15103;DHT22;7652;53.584;9.998;2024-02-16T12:18:20;16.50;99.90
15103;DHT22;7652;53.584;9.998;2024-02-16T12:21:43;16.50;99.90
15103;DHT22;7652;53.584;9.998;2024-02-16T12:25:05;16.50;99.90
15103;DHT22;7652;53.584;9.998;2024-02-16T12:28:27;16.50;99.90
15103;DHT22;7652;53.584;9.998;2024-02-16T12:31:50;16.50;99.90
15103;DHT22;7652;53.584;9.998;2024-02-16T12:35:12;16.60;99.90
15103;DHT22;7652;53.584;9.998;2024-02-16T12:38:34;16.60;99.90
15103;DHT22;7652;53.584;9.998;2024-02-16T12:41:55;16.60;99.90
15103;DHT22;7652;53.584;9.998;2024-02-16T12:45:17;16.50;99.90
15103;DHT22;7652;53.584;9.998;2024-02-16T12:48:40;16.40;99.90
15103;DHT22;7652;53.584;9.998;2024-02-16T12:52:04;16.20;99.90
15103;DHT22;7652;53.584;9.998;2024-02-16T12:55:26;16.30;99.90
15103;DHT22;7652;53.584;9.998;2024-02-16T12:58:48;16.20;99.90
15103;DHT22;7652;53.584;9.998;2024-02-16T13:02:09;16.20;99.90
15103;DHT22;7652;53.584;9.998;2024-02-16T13:05:32;16.10;99.90
15103;DHT22;7652;53.584;9.998;2024-02-16T13:08:54;16.10;99.90
15103;DHT22;7652;53.584;9.998;2024-02-16T13:12:16;16.10;99.90
15103;DHT22;7652;53.584;9.998;2024-02-16T13:15:40;16.00;99.90
15103;DHT22;7652;53.584;9.998;2024-02-16T13:19:01;15.90;99.90
15103;DHT22;7652;53.584;9.998;2024-02-16T13:22:25;15.90;99.90
15103;DHT22;7652;53.584;9.998;2024-02-16T13:25:46;15.80;99.90
15103;DHT22;7652;53.584;9.998;2024-02-16T13:29:08;15.90;99.90
15103;DHT22;7652;53.584;9.998;2024-02-16T13:32:29;15.80;99.90
15103;DHT22;7652;53.584;9.998;2024-02-16T13:35:51;15.90;99.90
15103;DHT22;7652;53.584;9.998;2024-02-16T13:39:13;15.90;99.90
15103;DHT22;7652;53.584;9.998;2024-02-16T13:42:36;15.80;99.90
15103;DHT22;7652;53.584;9.998;2024-02-16T13:45:58;15.80;99.90
15103;DHT22;7652;53.584;9.998;2024-02-16T13:49:20;15.80;99.90
15103;DHT22;7652;53.584;9.998;2024-02-16T13:52:42;15.80;99.90
15103;DHT22;7652;53.584;9.998;2024-02-16T13:56:05;15.80;99.90
15103;DHT22;7652;53.584;9.998;2024-02-16T13:59:27;15.80;99.90
15103;DHT22;7652;53.584;9.998;2024-02-16T14:02:50;15.80;99.90
15103;DHT22;7652;53.584;9.998;2024-02-16T14:06:11;15.80;99.90
15103;DHT22;7652;53.584;9.998;2024-02-16T14:09:33;15.80;99.90
15103;DHT22;7652;53.584;9.998;2024-02-16T14:12:56;15.80;99.90
15103;DHT22;7652;53.584;9.998;2024-02-16T14:16:18;15.80;99.90
15103;DHT22;7652;53.584;9.998;2024-02-16T14:19:39;15.80;99.90
15103;DHT22;7652;53.584;9.998;2024-02-16T14:23:01;15.80;99.90
15103;DHT22;7652;53.584;9.998;2024-02-16T14:26:24;16.00;99.90
15103;DHT22;7652;53.584;9.998;2024-02-16T14:29:47;15.90;99.90
15103;DHT22;7652;53.584;9.998;2024-02-16T14:33:08;15.80;99.90
15103;DHT22;7652;53.584;9.998;2024-02-16T14:36:30;15.80;99.90
15103;DHT22;7652;53.584;9.998;2024-02-16T14:39:52;15.70;99.90
15103;DHT22;7652;53.584;9.998;2024-02-16T14:43:17;15.70;99.90
15103;DHT22;7652;53.584;9.998;2024-02-16T14:46:40;15.50;99.90
15103;DHT22;7652;53.584;9.998;2024-02-16T14:50:01;15.40;99.90
15103;DHT22;7652;53.584;9.998;2024-02-16T14:53:24;15.30;99.90
15103;DHT22;7652;53.584;9.998;2024-02-16T14:56:46;15.20;99.90
15103;DHT22;7652;53.584;9.998;2024-02-16T15:00:12;15.10;99.90
15103;DHT22;7652;53.584;9.998;2024-02-16T15:03:35;15.10;99.90
15103;DHT22;7652;53.584;9.998;2024-02-16T15:06:57;15.10;99.90
15103;DHT22;7652;53.584;9.998;2024-02-16T15:10:18;15.00;99.90
15103;DHT22;7652;53.584;9.998;2024-02-16T15:13:40;15.00;99.90
15103;DHT22;7652;53.584;9.998;2024-02-16T15:17:03;14.90;99.90
15103;DHT22;7652;53.584;9.998;2024-02-16T15:20:28;14.90;99.90
15103;DHT22;7652;53.584;9.998;2024-02-16T15:23:50;14.80;99.90
15103;DHT22;7652;53.584;9.998;2024-02-16T15:27:12;14.70;99.90
15103;DHT22;7652;53.584;9.998;2024-02-16T15:30:33;14.60;99.90
15103;DHT22;7652;53.584;9.998;2024-02-16T15:33:55;14.60;99.90
15103;DHT22;7652;53.584;9.998;2024-02-16T15:37:18;14.60;99.90
15103;DHT22;7652;53.584;9.998;2024-02-16T15:40:41;14.50;99.90
15103;DHT22;7652;53.584;9.998;2024-02-16T15:44:03;14.40;99.90
15103;DHT22;7652;53.584;9.998;2024-02-16T15:47:25;14.40;99.90
15103;DHT22;7652;53.584;9.998;2024-02-16T15:50:46;14.30;99.90
15103;DHT22;7652;53.584;9.998;2024-02-16T15:54:14;14.30;99.90
15103;DHT22;7652;53.584;9.998;2024-02-16T15:57:36;14.20;99.90
15103;DHT22;7652;53.584;9.998;2024-02-16T16:00:57;14.20;99.90
15103;DHT22;7652;53.584;9.998;2024-02-16T16:04:19;14.10;99.90
15103;DHT22;7652;53.584;9.998;2024-02-16T16:07:40;14.10;99.90
15103;DHT22;7652;53.584;9.998;2024-02-16T16:11:05;14.10;99.90
15103;DHT22;7652;53.584;9.998;2024-02-16T16:14:27;14.10;99.90
15103;DHT22;7652;53.584;9.998;2024-02-16T16:17:48;14.00;99.90
15103;DHT22;7652;53.584;9.998;2024-02-16T16:21:09;14.00;99.90
15103;DHT22;7652;53.584;9.998;2024-02-16T16:24:31;13.90;99.90
15103;DHT22;7652;53.584;9.998;2024-02-16T16:27:54;13.80;99.90
15103;DHT22;7652;53.584;9.998;2024-02-16T16:31:15;13.70;99.90
15103;DHT22;7652;53.584;9.998;2024-02-16T16:34:37;13.60;99.90
15103;DHT22;7652;53.584;9.998;2024-02-16T16:37:59;13.50;99.90
15103;DHT22;7652;53.584;9.998;2024-02-16T16:41:21;13.40;99.90
15103;DHT22;7652;53.584;9.998;2024-02-16T16:44:44;13.30;99.90
15103;DHT22;7652;53.584;9.998;2024-02-16T16:48:08;13.20;99.90
15103;DHT22;7652;53.584;9.998;2024-02-16T16:51:30;13.20;99.90
15103;DHT22;7652;53.584;9.998;2024-02-16T16:54:51;13.20;99.90
15103;DHT22;7652;53.584;9.998;2024-02-16T16:58:12;13.10;99.90
15103;DHT22;7652;53.584;9.998;2024-02-16T17:01:35;13.00;99.90
15103;DHT22;7652;53.584;9.998;2024-02-16T17:04:58;12.80;99.90
15103;DHT22;7652;53.584;9.998;2024-02-16T17:08:19;12.80;99.90
15103;DHT22;7652;53.584;9.998;2024-02-16T17:11:41;12.70;99.90
15103;DHT22;7652;53.584;9.998;2024-02-16T17:15:03;12.60;99.90
15103;DHT22;7652;53.584;9.998;2024-02-16T17:18:26;12.50;99.90
15103;DHT22;7652;53.584;9.998;2024-02-16T17:21:48;12.50;99.90
15103;DHT22;7652;53.584;9.998;2024-02-16T17:25:10;12.40;99.90
15103;DHT22;7652;53.584;9.998;2024-02-16T17:28:32;12.40;99.90
15103;DHT22;7652;53.584;9.998;2024-02-16T17:31:55;12.30;99.90
15103;DHT22;7652;53.584;9.998;2024-02-16T17:35:19;12.30;99.90
15103;DHT22;7652;53.584;9.998;2024-02-16T17:38:40;12.20;99.90
15103;DHT22;7652;53.584;9.998;2024-02-16T17:42:02;12.20;99.90
15103;DHT22;7652;53.584;9.998;2024-02-16T17:45:24;12.20;99.90
15103;DHT22;7652;53.584;9.998;2024-02-16T17:48:45;12.20;99.90
15103;DHT22;7652;53.584;9.998;2024-02-16T17:52:10;12.20;99.90
15103;DHT22;7652;53.584;9.998;2024-02-16T17:55:31;12.20;99.90
15103;DHT22;7652;53.584;9.998;2024-02-16T17:58:55;12.20;99.90
15103;DHT22;7652;53.584;9.998;2024-02-16T18:02:17;12.20;99.90
15103;DHT22;7652;53.584;9.998;2024-02-16T18:05:57;12.30;99.90
15103;DHT22;7652;53.584;9.998;2024-02-16T18:09:21;12.20;99.90
15103;DHT22;7652;53.584;9.998;2024-02-16T18:12:42;12.20;99.90
15103;DHT22;7652;53.584;9.998;2024-02-16T18:16:04;12.20;99.90
15103;DHT22;7652;53.584;9.998;2024-02-16T18:19:26;12.10;99.90
15103;DHT22;7652;53.584;9.998;2024-02-16T18:22:47;12.10;99.90
15103;DHT22;7652;53.584;9.998;2024-02-16T18:26:10;12.20;99.90
15103;DHT22;7652;53.584;9.998;2024-02-16T18:29:34;12.20;99.90
15103;DHT22;7652;53.584;9.998;2024-02-16T18:32:55;12.10;99.90
15103;DHT22;7652;53.584;9.998;2024-02-16T18:36:17;12.10;99.90
15103;DHT22;7652;53.584;9.998;2024-02-16T18:39:39;12.10;99.90
15103;DHT22;7652;53.584;9.998;2024-02-16T18:43:03;12.10;99.90
15103;DHT22;7652;53.584;9.998;2024-02-16T18:46:27;12.10;99.90
15103;DHT22;7652;53.584;9.998;2024-02-16T18:49:48;12.10;99.90
15103;DHT22;7652;53.584;9.998;2024-02-16T18:53:13;12.10;99.90
15103;DHT22;7652;53.584;9.998;2024-02-16T18:56:34;12.10;99.90
15103;DHT22;7652;53.584;9.998;2024-02-16T18:59:57;12.10;99.90
15103;DHT22;7652;53.584;9.998;2024-02-16T19:03:18;12.00;99.90
15103;DHT22;7652;53.584;9.998;2024-02-16T19:06:40;12.00;99.90
15103;DHT22;7652;53.584;9.998;2024-02-16T19:10:03;12.00;99.90
15103;DHT22;7652;53.584;9.998;2024-02-16T19:13:24;11.90;99.90
15103;DHT22;7652;53.584;9.998;2024-02-16T19:16:48;11.90;99.90
15103;DHT22;7652;53.584;9.998;2024-02-16T19:20:10;11.90;99.90
15103;DHT22;7652;53.584;9.998;2024-02-16T19:23:32;11.90;99.90
15103;DHT22;7652;53.584;9.998;2024-02-16T19:26:53;11.90;99.90
15103;DHT22;7652;53.584;9.998;2024-02-16T19:30:15;11.80;99.90
15103;DHT22;7652;53.584;9.998;2024-02-16T19:33:40;11.80;99.90
15103;DHT22;7652;53.584;9.998;2024-02-16T19:37:02;11.90;99.90
15103;DHT22;7652;53.584;9.998;2024-02-16T19:40:23;11.90;99.90
15103;DHT22;7652;53.584;9.998;2024-02-16T19:43:45;11.90;99.90
15103;DHT22;7652;53.584;9.998;2024-02-16T19:47:07;11.90;99.90
15103;DHT22;7652;53.584;9.998;2024-02-16T19:50:30;12.00;99.90
15103;DHT22;7652;53.584;9.998;2024-02-16T19:53:51;12.00;99.90
15103;DHT22;7652;53.584;9.998;2024-02-16T19:57:13;12.00;99.90
15103;DHT22;7652;53.584;9.998;2024-02-16T20:00:34;12.00;99.90
15103;DHT22;7652;53.584;9.998;2024-02-16T20:03:56;12.00;99.90
15103;DHT22;7652;53.584;9.998;2024-02-16T20:07:19;12.00;99.90
15103;DHT22;7652;53.584;9.998;2024-02-16T20:10:44;12.00;99.90
15103;DHT22;7652;53.584;9.998;2024-02-16T20:14:05;11.90;99.90
15103;DHT22;7652;53.584;9.998;2024-02-16T20:17:26;12.00;99.90
15103;DHT22;7652;53.584;9.998;2024-02-16T20:20:48;12.00;99.90
15103;DHT22;7652;53.584;9.998;2024-02-16T20:24:11;12.00;99.90
15103;DHT22;7652;53.584;9.998;2024-02-16T20:27:33;12.00;99.90
15103;DHT22;7652;53.584;9.998;2024-02-16T20:30:55;11.90;99.90
15103;DHT22;7652;53.584;9.998;2024-02-16T20:34:23;11.90;99.90
15103;DHT22;7652;53.584;9.998;2024-02-16T20:37:45;11.90;99.90
15103;DHT22;7652;53.584;9.998;2024-02-16T20:41:09;11.90;99.90
15103;DHT22;7652;53.584;9.998;2024-02-16T20:44:31;11.90;99.90
15103;DHT22;7652;53.584;9.998;2024-02-16T20:47:52;11.90;99.90
15103;DHT22;7652;53.584;9.998;2024-02-16T20:51:14;11.80;99.90
15103;DHT22;7652;53.584;9.998;2024-02-16T20:54:36;11.90;99.90
15103;DHT22;7652;53.584;9.998;2024-02-16T20:57:59;11.80;99.90
15103;DHT22;7652;53.584;9.998;2024-02-16T21:01:21;11.80;99.90
15103;DHT22;7652;53.584;9.998;2024-02-16T21:04:42;11.90;99.90
15103;DHT22;7652;53.584;9.998;2024-02-16T21:08:05;11.80;99.90
15103;DHT22;7652;53.584;9.998;2024-02-16T21:11:26;11.80;99.90
15103;DHT22;7652;53.584;9.998;2024-02-16T21:14:50;11.80;99.90
15103;DHT22;7652;53.584;9.998;2024-02-16T21:18:12;11.80;99.90
15103;DHT22;7652;53.584;9.998;2024-02-16T21:21:35;11.80;99.90
15103;DHT22;7652;53.584;9.998;2024-02-16T21:24:58;11.80;99.90
15103;DHT22;7652;53.584;9.998;2024-02-16T21:28:19;11.80;99.90
15103;DHT22;7652;53.584;9.998;2024-02-16T21:31:42;11.70;99.90
15103;DHT22;7652;53.584;9.998;2024-02-16T21:35:04;11.70;99.90
15103;DHT22;7652;53.584;9.998;2024-02-16T21:38:26;11.70;99.90